sensor_id;sensor_type;location;lat;lon;timestamp;P1;durP1;ratioP1;P2;durP2;ratioP2
20986;SDS011;10652;50.306;8.570;2023-04-25T00:00:30;6.45;;;4.80;;
20986;SDS011;10652;50.306;8.570;2023-04-25T00:04:32;5.85;;;5.25;;
20986;SDS011;10652;50.306;8.570;2023-04-25T00:08:35;6.55;;;4.95;;
20986;SDS011;10652;50.306;8.570;2023-04-25T00:12:38;5.80;;;4.70;;
20986;SDS011;10652;50.306;8.570;2023-04-25T00:16:40;6.50;;;5.38;;
20986;SDS011;10652;50.306;8.570;2023-04-25T00:20:43;7.70;;;5.55;;
20986;SDS011;10652;50.306;8.570;2023-04-25T00:24:48;6.38;;;5.63;;
20986;SDS011;10652;50.306;8.570;2023-04-25T00:28:50;6.75;;;6.05;;
20986;SDS011;10652;50.306;8.570;2023-04-25T00:32:52;7.75;;;5.70;;
20986;SDS011;10652;50.306;8.570;2023-04-25T00:36:55;7.70;;;6.35;;
20986;SDS011;10652;50.306;8.570;2023-04-25T00:40:57;6.65;;;5.95;;
20986;SDS011;10652;50.306;8.570;2023-04-25T00:44:59;7.53;;;6.20;;
20986;SDS011;10652;50.306;8.570;2023-04-25T00:49:02;7.47;;;6.13;;
20986;SDS011;10652;50.306;8.570;2023-04-25T00:53:04;7.65;;;6.18;;
20986;SDS011;10652;50.306;8.570;2023-04-25T00:57:06;8.57;;;5.90;;
20986;SDS011;10652;50.306;8.570;2023-04-25T01:01:09;8.05;;;5.88;;
20986;SDS011;10652;50.306;8.570;2023-04-25T01:05:12;9.07;;;6.07;;
20986;SDS011;10652;50.306;8.570;2023-04-25T01:09:15;6.47;;;5.50;;
20986;SDS011;10652;50.306;8.570;2023-04-25T01:13:17;9.52;;;5.95;;
20986;SDS011;10652;50.306;8.570;2023-04-25T01:17:20;9.48;;;5.88;;
20986;SDS011;10652;50.306;8.570;2023-04-25T01:21:24;8.45;;;5.70;;
20986;SDS011;10652;50.306;8.570;2023-04-25T01:25:29;9.88;;;5.68;;
20986;SDS011;10652;50.306;8.570;2023-04-25T01:29:32;6.72;;;5.10;;
20986;SDS011;10652;50.306;8.570;2023-04-25T01:33:36;8.98;;;5.68;;
20986;SDS011;10652;50.306;8.570;2023-04-25T01:37:39;8.02;;;5.40;;
20986;SDS011;10652;50.306;8.570;2023-04-25T01:41:43;11.40;;;5.50;;
20986;SDS011;10652;50.306;8.570;2023-04-25T01:45:46;7.95;;;5.55;;
20986;SDS011;10652;50.306;8.570;2023-04-25T01:49:49;8.45;;;5.43;;
20986;SDS011;10652;50.306;8.570;2023-04-25T01:53:51;7.53;;;5.68;;
20986;SDS011;10652;50.306;8.570;2023-04-25T01:57:54;8.27;;;6.07;;
20986;SDS011;10652;50.306;8.570;2023-04-25T02:02:05;8.50;;;5.80;;
20986;SDS011;10652;50.306;8.570;2023-04-25T02:06:09;8.80;;;6.32;;
20986;SDS011;10652;50.306;8.570;2023-04-25T02:10:16;7.10;;;6.15;;
20986;SDS011;10652;50.306;8.570;2023-04-25T02:14:29;10.52;;;6.10;;
20986;SDS011;10652;50.306;8.570;2023-04-25T02:18:36;9.73;;;6.50;;
20986;SDS011;10652;50.306;8.570;2023-04-25T02:22:41;10.63;;;6.70;;
20986;SDS011;10652;50.306;8.570;2023-04-25T02:26:44;9.77;;;6.93;;
20986;SDS011;10652;50.306;8.570;2023-04-25T02:30:47;10.23;;;7.15;;
20986;SDS011;10652;50.306;8.570;2023-04-25T02:34:49;11.23;;;6.78;;
20986;SDS011;10652;50.306;8.570;2023-04-25T02:38:51;8.80;;;5.95;;
20986;SDS011;10652;50.306;8.570;2023-04-25T02:42:55;7.93;;;5.70;;
20986;SDS011;10652;50.306;8.570;2023-04-25T02:46:57;10.45;;;6.03;;
20986;SDS011;10652;50.306;8.570;2023-04-25T02:50:59;8.85;;;5.90;;
20986;SDS011;10652;50.306;8.570;2023-04-25T02:55:01;9.40;;;5.88;;
20986;SDS011;10652;50.306;8.570;2023-04-25T02:59:05;9.10;;;5.82;;
20986;SDS011;10652;50.306;8.570;2023-04-25T03:03:07;10.35;;;6.18;;
20986;SDS011;10652;50.306;8.570;2023-04-25T03:07:09;12.30;;;6.10;;
20986;SDS011;10652;50.306;8.570;2023-04-25T03:11:12;14.02;;;6.57;;
20986;SDS011;10652;50.306;8.570;2023-04-25T03:15:16;12.88;;;6.88;;
20986;SDS011;10652;50.306;8.570;2023-04-25T03:19:18;11.35;;;6.80;;
20986;SDS011;10652;50.306;8.570;2023-04-25T03:23:20;12.40;;;7.75;;
20986;SDS011;10652;50.306;8.570;2023-04-25T03:27:23;10.80;;;6.78;;
20986;SDS011;10652;50.306;8.570;2023-04-25T03:31:25;13.32;;;7.28;;
20986;SDS011;10652;50.306;8.570;2023-04-25T03:35:28;12.60;;;6.78;;
20986;SDS011;10652;50.306;8.570;2023-04-25T03:39:30;13.88;;;7.88;;
20986;SDS011;10652;50.306;8.570;2023-04-25T03:43:33;14.18;;;7.95;;
20986;SDS011;10652;50.306;8.570;2023-04-25T03:47:39;15.43;;;8.07;;
20986;SDS011;10652;50.306;8.570;2023-04-25T03:51:42;13.88;;;8.38;;
20986;SDS011;10652;50.306;8.570;2023-04-25T03:55:44;16.40;;;7.90;;
20986;SDS011;10652;50.306;8.570;2023-04-25T03:59:47;14.45;;;7.88;;
20986;SDS011;10652;50.306;8.570;2023-04-25T04:03:50;13.95;;;7.80;;
20986;SDS011;10652;50.306;8.570;2023-04-25T04:07:53;12.73;;;7.72;;
20986;SDS011;10652;50.306;8.570;2023-04-25T04:11:56;15.60;;;7.43;;
20986;SDS011;10652;50.306;8.570;2023-04-25T04:15:59;12.80;;;6.78;;
20986;SDS011;10652;50.306;8.570;2023-04-25T04:20:01;10.48;;;6.80;;
20986;SDS011;10652;50.306;8.570;2023-04-25T04:24:06;10.00;;;6.82;;
20986;SDS011;10652;50.306;8.570;2023-04-25T04:28:21;11.20;;;6.80;;
20986;SDS011;10652;50.306;8.570;2023-04-25T04:32:29;12.82;;;6.70;;
20986;SDS011;10652;50.306;8.570;2023-04-25T04:36:32;11.30;;;6.80;;
20986;SDS011;10652;50.306;8.570;2023-04-25T04:40:35;28.70;;;14.25;;
20986;SDS011;10652;50.306;8.570;2023-04-25T04:44:44;13.15;;;6.22;;
20986;SDS011;10652;50.306;8.570;2023-04-25T04:49:06;12.95;;;6.47;;
20986;SDS011;10652;50.306;8.570;2023-04-25T04:53:14;10.00;;;5.82;;
20986;SDS011;10652;50.306;8.570;2023-04-25T04:57:31;7.88;;;4.75;;
20986;SDS011;10652;50.306;8.570;2023-04-25T05:01:46;10.20;;;5.65;;
20986;SDS011;10652;50.306;8.570;2023-04-25T05:06:00;11.70;;;5.80;;
20986;SDS011;10652;50.306;8.570;2023-04-25T05:10:20;10.05;;;5.38;;
20986;SDS011;10652;50.306;8.570;2023-04-25T05:14:31;14.45;;;5.93;;
20986;SDS011;10652;50.306;8.570;2023-04-25T05:18:46;8.50;;;4.93;;
20986;SDS011;10652;50.306;8.570;2023-04-25T05:23:17;11.63;;;4.88;;
20986;SDS011;10652;50.306;8.570;2023-04-25T05:27:41;10.02;;;5.05;;
20986;SDS011;10652;50.306;8.570;2023-04-25T05:32:02;9.85;;;4.38;;
20986;SDS011;10652;50.306;8.570;2023-04-25T05:36:04;9.35;;;3.88;;
20986;SDS011;10652;50.306;8.570;2023-04-25T05:40:08;11.55;;;4.85;;
20986;SDS011;10652;50.306;8.570;2023-04-25T05:44:30;8.00;;;3.97;;
20986;SDS011;10652;50.306;8.570;2023-04-25T05:48:53;11.48;;;4.22;;
20986;SDS011;10652;50.306;8.570;2023-04-25T05:53:11;8.18;;;3.55;;
20986;SDS011;10652;50.306;8.570;2023-04-25T05:57:22;6.90;;;3.42;;
20986;SDS011;10652;50.306;8.570;2023-04-25T06:01:26;7.20;;;3.20;;
20986;SDS011;10652;50.306;8.570;2023-04-25T06:05:29;7.57;;;3.35;;
20986;SDS011;10652;50.306;8.570;2023-04-25T06:09:31;7.10;;;3.60;;
20986;SDS011;10652;50.306;8.570;2023-04-25T06:13:33;7.55;;;3.65;;
20986;SDS011;10652;50.306;8.570;2023-04-25T06:17:35;7.90;;;3.72;;
20986;SDS011;10652;50.306;8.570;2023-04-25T06:21:41;6.15;;;3.10;;
20986;SDS011;10652;50.306;8.570;2023-04-25T06:25:45;6.47;;;3.08;;
20986;SDS011;10652;50.306;8.570;2023-04-25T06:29:47;8.85;;;3.05;;
20986;SDS011;10652;50.306;8.570;2023-04-25T06:33:50;6.78;;;3.47;;
20986;SDS011;10652;50.306;8.570;2023-04-25T06:37:52;6.55;;;2.90;;
20986;SDS011;10652;50.306;8.570;2023-04-25T06:41:57;9.82;;;3.55;;
20986;SDS011;10652;50.306;8.570;2023-04-25T06:46:28;6.68;;;3.03;;
20986;SDS011;10652;50.306;8.570;2023-04-25T06:50:33;5.68;;;3.40;;
20986;SDS011;10652;50.306;8.570;2023-04-25T06:54:36;5.53;;;3.20;;
20986;SDS011;10652;50.306;8.570;2023-04-25T06:58:50;5.90;;;3.53;;
20986;SDS011;10652;50.306;8.570;2023-04-25T07:03:02;6.63;;;3.65;;
20986;SDS011;10652;50.306;8.570;2023-04-25T07:07:05;7.57;;;3.75;;
20986;SDS011;10652;50.306;8.570;2023-04-25T07:11:14;6.68;;;3.55;;
20986;SDS011;10652;50.306;8.570;2023-04-25T07:15:16;7.90;;;4.00;;
20986;SDS011;10652;50.306;8.570;2023-04-25T07:19:21;5.97;;;3.38;;
20986;SDS011;10652;50.306;8.570;2023-04-25T07:23:23;6.05;;;3.58;;
20986;SDS011;10652;50.306;8.570;2023-04-25T07:27:26;5.43;;;3.75;;
20986;SDS011;10652;50.306;8.570;2023-04-25T07:31:33;7.10;;;3.90;;
20986;SDS011;10652;50.306;8.570;2023-04-25T07:35:35;7.93;;;3.92;;
20986;SDS011;10652;50.306;8.570;2023-04-25T07:39:37;6.20;;;3.63;;
20986;SDS011;10652;50.306;8.570;2023-04-25T07:43:40;8.82;;;3.83;;
20986;SDS011;10652;50.306;8.570;2023-04-25T07:47:42;7.15;;;3.10;;
20986;SDS011;10652;50.306;8.570;2023-04-25T07:51:44;8.38;;;3.67;;
20986;SDS011;10652;50.306;8.570;2023-04-25T07:55:50;7.03;;;3.80;;
20986;SDS011;10652;50.306;8.570;2023-04-25T07:59:53;7.40;;;4.05;;
20986;SDS011;10652;50.306;8.570;2023-04-25T08:03:56;7.85;;;4.70;;
20986;SDS011;10652;50.306;8.570;2023-04-25T08:08:18;6.18;;;4.10;;
20986;SDS011;10652;50.306;8.570;2023-04-25T08:12:20;9.10;;;4.13;;
20986;SDS011;10652;50.306;8.570;2023-04-25T08:16:24;6.68;;;4.43;;
20986;SDS011;10652;50.306;8.570;2023-04-25T08:20:27;7.72;;;4.18;;
20986;SDS011;10652;50.306;8.570;2023-04-25T08:24:32;7.97;;;4.20;;
20986;SDS011;10652;50.306;8.570;2023-04-25T08:28:34;8.10;;;3.80;;
20986;SDS011;10652;50.306;8.570;2023-04-25T08:32:36;7.47;;;4.25;;
20986;SDS011;10652;50.306;8.570;2023-04-25T08:36:59;6.05;;;4.13;;
20986;SDS011;10652;50.306;8.570;2023-04-25T08:41:13;7.15;;;4.15;;
20986;SDS011;10652;50.306;8.570;2023-04-25T08:45:17;6.88;;;4.50;;
20986;SDS011;10652;50.306;8.570;2023-04-25T08:49:19;7.18;;;4.22;;
20986;SDS011;10652;50.306;8.570;2023-04-25T08:53:22;9.55;;;4.68;;
20986;SDS011;10652;50.306;8.570;2023-04-25T08:57:29;6.20;;;4.20;;
20986;SDS011;10652;50.306;8.570;2023-04-25T09:01:33;7.00;;;3.92;;
20986;SDS011;10652;50.306;8.570;2023-04-25T09:05:36;6.65;;;3.65;;
20986;SDS011;10652;50.306;8.570;2023-04-25T09:09:39;5.85;;;3.33;;
20986;SDS011;10652;50.306;8.570;2023-04-25T09:13:41;5.40;;;3.53;;
20986;SDS011;10652;50.306;8.570;2023-04-25T09:18:07;6.03;;;3.20;;
20986;SDS011;10652;50.306;8.570;2023-04-25T09:22:16;5.25;;;2.97;;
20986;SDS011;10652;50.306;8.570;2023-04-25T09:26:20;5.35;;;3.03;;
20986;SDS011;10652;50.306;8.570;2023-04-25T09:30:31;6.32;;;3.15;;
20986;SDS011;10652;50.306;8.570;2023-04-25T09:34:42;5.70;;;3.30;;
20986;SDS011;10652;50.306;8.570;2023-04-25T09:38:46;5.88;;;2.85;;
20986;SDS011;10652;50.306;8.570;2023-04-25T09:43:21;5.07;;;3.20;;
20986;SDS011;10652;50.306;8.570;2023-04-25T09:47:25;4.82;;;3.28;;
20986;SDS011;10652;50.306;8.570;2023-04-25T09:51:29;4.63;;;2.45;;
20986;SDS011;10652;50.306;8.570;2023-04-25T09:55:34;3.53;;;2.35;;
20986;SDS011;10652;50.306;8.570;2023-04-25T09:59:38;5.35;;;3.03;;
20986;SDS011;10652;50.306;8.570;2023-04-25T10:03:41;7.32;;;2.83;;
20986;SDS011;10652;50.306;8.570;2023-04-25T10:08:11;4.10;;;3.17;;
20986;SDS011;10652;50.306;8.570;2023-04-25T10:12:14;4.85;;;2.58;;
20986;SDS011;10652;50.306;8.570;2023-04-25T10:16:16;3.60;;;2.60;;
20986;SDS011;10652;50.306;8.570;2023-04-25T10:20:19;3.60;;;2.90;;
20986;SDS011;10652;50.306;8.570;2023-04-25T10:24:21;5.43;;;2.45;;
20986;SDS011;10652;50.306;8.570;2023-04-25T10:28:24;5.40;;;2.45;;
20986;SDS011;10652;50.306;8.570;2023-04-25T10:32:26;3.25;;;2.22;;
20986;SDS011;10652;50.306;8.570;2023-04-25T10:36:32;4.13;;;2.08;;
20986;SDS011;10652;50.306;8.570;2023-04-25T10:40:34;4.97;;;1.75;;
20986;SDS011;10652;50.306;8.570;2023-04-25T10:44:37;5.45;;;1.70;;
20986;SDS011;10652;50.306;8.570;2023-04-25T10:48:43;5.65;;;1.73;;
20986;SDS011;10652;50.306;8.570;2023-04-25T10:52:48;4.50;;;2.03;;
20986;SDS011;10652;50.306;8.570;2023-04-25T10:56:50;3.53;;;2.00;;
20986;SDS011;10652;50.306;8.570;2023-04-25T11:00:53;3.70;;;1.80;;
20986;SDS011;10652;50.306;8.570;2023-04-25T11:04:58;5.65;;;2.20;;
20986;SDS011;10652;50.306;8.570;2023-04-25T11:09:01;4.10;;;1.52;;
20986;SDS011;10652;50.306;8.570;2023-04-25T11:13:04;4.13;;;1.67;;
20986;SDS011;10652;50.306;8.570;2023-04-25T11:17:06;4.95;;;2.03;;
20986;SDS011;10652;50.306;8.570;2023-04-25T11:21:09;4.35;;;1.90;;
20986;SDS011;10652;50.306;8.570;2023-04-25T11:25:13;5.00;;;1.70;;
20986;SDS011;10652;50.306;8.570;2023-04-25T11:29:17;5.55;;;1.67;;
20986;SDS011;10652;50.306;8.570;2023-04-25T11:33:22;3.33;;;1.55;;
20986;SDS011;10652;50.306;8.570;2023-04-25T11:37:26;3.60;;;1.50;;
20986;SDS011;10652;50.306;8.570;2023-04-25T11:41:28;4.43;;;1.70;;
20986;SDS011;10652;50.306;8.570;2023-04-25T11:45:32;5.72;;;1.95;;
20986;SDS011;10652;50.306;8.570;2023-04-25T11:49:34;5.90;;;2.03;;
20986;SDS011;10652;50.306;8.570;2023-04-25T11:53:40;8.88;;;2.40;;
20986;SDS011;10652;50.306;8.570;2023-04-25T11:57:43;8.02;;;3.17;;
20986;SDS011;10652;50.306;8.570;2023-04-25T12:01:48;6.53;;;2.30;;
20986;SDS011;10652;50.306;8.570;2023-04-25T12:05:51;5.10;;;1.80;;
20986;SDS011;10652;50.306;8.570;2023-04-25T12:09:54;4.93;;;2.05;;
20986;SDS011;10652;50.306;8.570;2023-04-25T12:13:56;7.10;;;2.40;;
20986;SDS011;10652;50.306;8.570;2023-04-25T12:22:18;7.05;;;2.10;;
20986;SDS011;10652;50.306;8.570;2023-04-25T12:26:24;7.88;;;2.08;;
20986;SDS011;10652;50.306;8.570;2023-04-25T12:30:27;4.03;;;2.10;;
20986;SDS011;10652;50.306;8.570;2023-04-25T12:34:30;3.83;;;1.75;;
20986;SDS011;10652;50.306;8.570;2023-04-25T12:38:37;6.97;;;2.30;;
20986;SDS011;10652;50.306;8.570;2023-04-25T12:42:41;4.40;;;2.08;;
20986;SDS011;10652;50.306;8.570;2023-04-25T12:46:44;4.68;;;2.22;;
20986;SDS011;10652;50.306;8.570;2023-04-25T12:50:47;6.50;;;2.33;;
20986;SDS011;10652;50.306;8.570;2023-04-25T12:54:50;6.10;;;2.42;;
20986;SDS011;10652;50.306;8.570;2023-04-25T12:58:53;4.35;;;1.85;;
20986;SDS011;10652;50.306;8.570;2023-04-25T13:02:55;6.38;;;1.85;;
20986;SDS011;10652;50.306;8.570;2023-04-25T13:06:57;7.30;;;1.85;;
20986;SDS011;10652;50.306;8.570;2023-04-25T13:10:59;8.05;;;2.10;;
20986;SDS011;10652;50.306;8.570;2023-04-25T13:15:02;8.63;;;2.13;;
20986;SDS011;10652;50.306;8.570;2023-04-25T13:19:04;7.75;;;2.15;;
20986;SDS011;10652;50.306;8.570;2023-04-25T13:23:07;5.60;;;2.20;;
20986;SDS011;10652;50.306;8.570;2023-04-25T13:27:09;5.63;;;2.10;;
20986;SDS011;10652;50.306;8.570;2023-04-25T13:31:11;5.68;;;2.20;;
20986;SDS011;10652;50.306;8.570;2023-04-25T13:35:13;4.07;;;1.70;;
20986;SDS011;10652;50.306;8.570;2023-04-25T13:39:15;5.05;;;1.85;;
20986;SDS011;10652;50.306;8.570;2023-04-25T13:43:20;5.53;;;2.13;;
20986;SDS011;10652;50.306;8.570;2023-04-25T13:47:26;2.20;;;1.50;;
20986;SDS011;10652;50.306;8.570;2023-04-25T13:51:28;5.13;;;1.67;;
20986;SDS011;10652;50.306;8.570;2023-04-25T13:55:34;4.60;;;1.80;;
20986;SDS011;10652;50.306;8.570;2023-04-25T13:59:38;5.22;;;1.75;;
20986;SDS011;10652;50.306;8.570;2023-04-25T14:03:42;4.90;;;1.58;;
20986;SDS011;10652;50.306;8.570;2023-04-25T14:07:44;4.85;;;1.50;;
20986;SDS011;10652;50.306;8.570;2023-04-25T14:11:46;4.28;;;1.58;;
20986;SDS011;10652;50.306;8.570;2023-04-25T14:15:48;5.53;;;2.10;;
20986;SDS011;10652;50.306;8.570;2023-04-25T14:19:52;5.45;;;2.13;;
20986;SDS011;10652;50.306;8.570;2023-04-25T14:23:54;3.28;;;1.50;;
20986;SDS011;10652;50.306;8.570;2023-04-25T14:27:56;6.60;;;2.10;;
20986;SDS011;10652;50.306;8.570;2023-04-25T14:31:58;4.03;;;1.98;;
20986;SDS011;10652;50.306;8.570;2023-04-25T14:36:00;3.60;;;1.20;;
20986;SDS011;10652;50.306;8.570;2023-04-25T14:40:03;4.65;;;1.25;;
20986;SDS011;10652;50.306;8.570;2023-04-25T14:44:06;5.30;;;1.38;;
20986;SDS011;10652;50.306;8.570;2023-04-25T14:48:08;6.47;;;1.85;;
20986;SDS011;10652;50.306;8.570;2023-04-25T14:52:10;3.75;;;1.27;;
20986;SDS011;10652;50.306;8.570;2023-04-25T14:56:12;4.03;;;1.20;;
20986;SDS011;10652;50.306;8.570;2023-04-25T15:00:14;3.88;;;1.40;;
20986;SDS011;10652;50.306;8.570;2023-04-25T15:04:18;3.53;;;1.08;;
20986;SDS011;10652;50.306;8.570;2023-04-25T15:08:20;2.30;;;1.00;;
20986;SDS011;10652;50.306;8.570;2023-04-25T15:12:22;4.63;;;1.10;;
20986;SDS011;10652;50.306;8.570;2023-04-25T15:16:25;2.90;;;0.90;;
20986;SDS011;10652;50.306;8.570;2023-04-25T15:20:28;6.82;;;1.60;;
20986;SDS011;10652;50.306;8.570;2023-04-25T15:24:30;4.18;;;1.30;;
20986;SDS011;10652;50.306;8.570;2023-04-25T15:28:32;4.35;;;1.75;;
20986;SDS011;10652;50.306;8.570;2023-04-25T15:32:35;6.45;;;1.60;;
20986;SDS011;10652;50.306;8.570;2023-04-25T15:36:37;3.70;;;1.45;;
20986;SDS011;10652;50.306;8.570;2023-04-25T15:40:39;2.63;;;1.27;;
20986;SDS011;10652;50.306;8.570;2023-04-25T15:44:42;3.97;;;1.30;;
20986;SDS011;10652;50.306;8.570;2023-04-25T15:48:44;3.95;;;1.52;;
20986;SDS011;10652;50.306;8.570;2023-04-25T15:52:47;4.43;;;1.52;;
20986;SDS011;10652;50.306;8.570;2023-04-25T15:56:50;6.55;;;1.88;;
20986;SDS011;10652;50.306;8.570;2023-04-25T16:00:52;4.85;;;1.45;;
20986;SDS011;10652;50.306;8.570;2023-04-25T16:04:56;4.07;;;1.40;;
20986;SDS011;10652;50.306;8.570;2023-04-25T16:08:58;3.63;;;1.52;;
20986;SDS011;10652;50.306;8.570;2023-04-25T16:13:01;2.33;;;1.20;;
20986;SDS011;10652;50.306;8.570;2023-04-25T16:17:03;5.90;;;1.70;;
20986;SDS011;10652;50.306;8.570;2023-04-25T16:21:05;4.68;;;1.20;;
20986;SDS011;10652;50.306;8.570;2023-04-25T16:25:07;3.78;;;1.20;;
20986;SDS011;10652;50.306;8.570;2023-04-25T16:29:10;5.80;;;2.03;;
20986;SDS011;10652;50.306;8.570;2023-04-25T16:33:13;3.38;;;1.50;;
20986;SDS011;10652;50.306;8.570;2023-04-25T16:37:15;5.85;;;1.98;;
20986;SDS011;10652;50.306;8.570;2023-04-25T16:41:18;4.65;;;2.10;;
20986;SDS011;10652;50.306;8.570;2023-04-25T16:45:20;2.55;;;1.40;;
20986;SDS011;10652;50.306;8.570;2023-04-25T16:49:22;5.38;;;1.65;;
20986;SDS011;10652;50.306;8.570;2023-04-25T16:53:24;4.90;;;1.45;;
20986;SDS011;10652;50.306;8.570;2023-04-25T16:57:27;4.30;;;1.75;;
20986;SDS011;10652;50.306;8.570;2023-04-25T17:01:29;6.35;;;1.70;;
20986;SDS011;10652;50.306;8.570;2023-04-25T17:05:32;5.43;;;1.48;;
20986;SDS011;10652;50.306;8.570;2023-04-25T17:09:35;6.07;;;1.73;;
20986;SDS011;10652;50.306;8.570;2023-04-25T17:13:37;4.15;;;1.25;;
20986;SDS011;10652;50.306;8.570;2023-04-25T17:17:39;3.85;;;1.40;;
20986;SDS011;10652;50.306;8.570;2023-04-25T17:21:41;5.00;;;2.10;;
20986;SDS011;10652;50.306;8.570;2023-04-25T17:25:44;4.82;;;1.52;;
20986;SDS011;10652;50.306;8.570;2023-04-25T17:29:46;5.15;;;1.48;;
20986;SDS011;10652;50.306;8.570;2023-04-25T17:33:48;4.80;;;1.50;;
20986;SDS011;10652;50.306;8.570;2023-04-25T17:37:51;5.25;;;1.35;;
20986;SDS011;10652;50.306;8.570;2023-04-25T17:41:53;2.58;;;1.42;;
20986;SDS011;10652;50.306;8.570;2023-04-25T17:45:55;7.90;;;2.45;;
20986;SDS011;10652;50.306;8.570;2023-04-25T17:49:57;3.78;;;1.58;;
20986;SDS011;10652;50.306;8.570;2023-04-25T17:53:59;2.38;;;0.98;;
20986;SDS011;10652;50.306;8.570;2023-04-25T17:58:01;2.80;;;1.40;;
20986;SDS011;10652;50.306;8.570;2023-04-25T18:02:03;3.28;;;1.20;;
20986;SDS011;10652;50.306;8.570;2023-04-25T18:06:06;4.13;;;1.20;;
20986;SDS011;10652;50.306;8.570;2023-04-25T18:10:08;3.50;;;1.30;;
20986;SDS011;10652;50.306;8.570;2023-04-25T18:14:12;2.90;;;0.90;;
20986;SDS011;10652;50.306;8.570;2023-04-25T18:18:15;4.30;;;1.38;;
20986;SDS011;10652;50.306;8.570;2023-04-25T18:22:21;4.88;;;1.10;;
20986;SDS011;10652;50.306;8.570;2023-04-25T18:26:23;2.75;;;1.70;;
20986;SDS011;10652;50.306;8.570;2023-04-25T18:30:25;2.40;;;1.40;;
20986;SDS011;10652;50.306;8.570;2023-04-25T18:34:27;2.17;;;1.10;;
20986;SDS011;10652;50.306;8.570;2023-04-25T18:38:29;2.55;;;1.25;;
20986;SDS011;10652;50.306;8.570;2023-04-25T18:42:37;3.50;;;1.70;;
20986;SDS011;10652;50.306;8.570;2023-04-25T18:46:39;3.50;;;1.10;;
20986;SDS011;10652;50.306;8.570;2023-04-25T18:50:44;2.63;;;2.33;;
20986;SDS011;10652;50.306;8.570;2023-04-25T18:54:46;4.13;;;1.67;;
20986;SDS011;10652;50.306;8.570;2023-04-25T18:58:49;6.90;;;2.55;;
20986;SDS011;10652;50.306;8.570;2023-04-25T19:02:55;3.50;;;2.13;;
20986;SDS011;10652;50.306;8.570;2023-04-25T19:07:04;3.38;;;1.20;;
20986;SDS011;10652;50.306;8.570;2023-04-25T19:11:06;3.67;;;2.35;;
20986;SDS011;10652;50.306;8.570;2023-04-25T19:15:21;4.18;;;2.03;;
20986;SDS011;10652;50.306;8.570;2023-04-25T19:19:24;5.00;;;2.30;;
20986;SDS011;10652;50.306;8.570;2023-04-25T19:23:27;5.43;;;2.10;;
20986;SDS011;10652;50.306;8.570;2023-04-25T19:27:31;3.58;;;1.50;;
20986;SDS011;10652;50.306;8.570;2023-04-25T19:31:34;3.58;;;1.25;;
20986;SDS011;10652;50.306;8.570;2023-04-25T19:35:38;3.97;;;2.40;;
20986;SDS011;10652;50.306;8.570;2023-04-25T19:39:40;2.58;;;1.30;;
20986;SDS011;10652;50.306;8.570;2023-04-25T19:43:42;4.50;;;1.50;;
20986;SDS011;10652;50.306;8.570;2023-04-25T19:47:44;2.88;;;1.13;;
20986;SDS011;10652;50.306;8.570;2023-04-25T19:51:46;3.88;;;2.08;;
20986;SDS011;10652;50.306;8.570;2023-04-25T19:55:48;4.72;;;2.20;;
20986;SDS011;10652;50.306;8.570;2023-04-25T19:59:51;14.15;;;9.35;;
20986;SDS011;10652;50.306;8.570;2023-04-25T20:03:53;4.82;;;3.22;;
20986;SDS011;10652;50.306;8.570;2023-04-25T20:07:55;4.78;;;1.88;;
20986;SDS011;10652;50.306;8.570;2023-04-25T20:11:57;3.58;;;1.40;;
20986;SDS011;10652;50.306;8.570;2023-04-25T20:15:59;2.80;;;1.20;;
20986;SDS011;10652;50.306;8.570;2023-04-25T20:20:03;3.22;;;1.08;;
20986;SDS011;10652;50.306;8.570;2023-04-25T20:24:07;3.28;;;1.00;;
20986;SDS011;10652;50.306;8.570;2023-04-25T20:28:09;3.88;;;1.58;;
20986;SDS011;10652;50.306;8.570;2023-04-25T20:32:11;4.45;;;2.08;;
20986;SDS011;10652;50.306;8.570;2023-04-25T20:36:13;4.72;;;2.08;;
20986;SDS011;10652;50.306;8.570;2023-04-25T20:40:16;5.50;;;2.20;;
20986;SDS011;10652;50.306;8.570;2023-04-25T20:44:18;3.33;;;1.48;;
20986;SDS011;10652;50.306;8.570;2023-04-25T20:48:23;2.13;;;1.27;;
20986;SDS011;10652;50.306;8.570;2023-04-25T20:52:25;2.95;;;1.42;;
20986;SDS011;10652;50.306;8.570;2023-04-25T20:56:27;3.03;;;1.50;;
20986;SDS011;10652;50.306;8.570;2023-04-25T21:00:29;2.45;;;1.20;;
20986;SDS011;10652;50.306;8.570;2023-04-25T21:04:31;3.42;;;1.30;;
20986;SDS011;10652;50.306;8.570;2023-04-25T21:08:33;3.15;;;1.08;;
20986;SDS011;10652;50.306;8.570;2023-04-25T21:12:35;2.08;;;0.98;;
20986;SDS011;10652;50.306;8.570;2023-04-25T21:16:38;2.60;;;1.00;;
20986;SDS011;10652;50.306;8.570;2023-04-25T21:20:41;2.22;;;0.90;;
20986;SDS011;10652;50.306;8.570;2023-04-25T21:24:43;1.52;;;1.10;;
20986;SDS011;10652;50.306;8.570;2023-04-25T21:28:45;4.57;;;1.15;;
20986;SDS011;10652;50.306;8.570;2023-04-25T21:32:47;4.95;;;1.27;;
20986;SDS011;10652;50.306;8.570;2023-04-25T21:36:53;3.80;;;1.33;;
20986;SDS011;10652;50.306;8.570;2023-04-25T21:40:55;2.38;;;1.20;;
20986;SDS011;10652;50.306;8.570;2023-04-25T21:44:57;3.15;;;1.20;;
20986;SDS011;10652;50.306;8.570;2023-04-25T21:48:59;2.13;;;1.23;;
20986;SDS011;10652;50.306;8.570;2023-04-25T21:53:01;4.43;;;1.13;;
20986;SDS011;10652;50.306;8.570;2023-04-25T21:57:04;2.70;;;1.00;;
20986;SDS011;10652;50.306;8.570;2023-04-25T22:01:06;1.63;;;1.10;;
20986;SDS011;10652;50.306;8.570;2023-04-25T22:05:08;2.67;;;1.20;;
20986;SDS011;10652;50.306;8.570;2023-04-25T22:09:11;3.30;;;1.55;;
20986;SDS011;10652;50.306;8.570;2023-04-25T22:13:13;2.83;;;1.67;;
20986;SDS011;10652;50.306;8.570;2023-04-25T22:17:16;2.17;;;1.40;;
20986;SDS011;10652;50.306;8.570;2023-04-25T22:21:18;3.28;;;1.48;;
20986;SDS011;10652;50.306;8.570;2023-04-25T22:25:21;3.78;;;1.77;;
20986;SDS011;10652;50.306;8.570;2023-04-25T22:29:23;3.40;;;2.20;;
20986;SDS011;10652;50.306;8.570;2023-04-25T22:33:25;5.10;;;2.08;;
20986;SDS011;10652;50.306;8.570;2023-04-25T22:37:28;3.78;;;2.00;;
20986;SDS011;10652;50.306;8.570;2023-04-25T22:41:30;3.20;;;1.83;;
20986;SDS011;10652;50.306;8.570;2023-04-25T22:45:33;5.25;;;2.00;;
20986;SDS011;10652;50.306;8.570;2023-04-25T22:49:36;2.92;;;1.85;;
20986;SDS011;10652;50.306;8.570;2023-04-25T22:53:38;1.83;;;1.30;;
20986;SDS011;10652;50.306;8.570;2023-04-25T22:57:42;3.58;;;1.50;;
20986;SDS011;10652;50.306;8.570;2023-04-25T23:01:45;5.00;;;2.10;;
20986;SDS011;10652;50.306;8.570;2023-04-25T23:05:47;3.72;;;2.10;;
20986;SDS011;10652;50.306;8.570;2023-04-25T23:09:50;4.95;;;2.42;;
20986;SDS011;10652;50.306;8.570;2023-04-25T23:13:52;4.75;;;2.47;;
20986;SDS011;10652;50.306;8.570;2023-04-25T23:17:54;4.90;;;2.80;;
20986;SDS011;10652;50.306;8.570;2023-04-25T23:21:57;7.90;;;3.80;;
20986;SDS011;10652;50.306;8.570;2023-04-25T23:26:07;4.43;;;2.60;;
20986;SDS011;10652;50.306;8.570;2023-04-25T23:30:12;5.68;;;2.92;;
20986;SDS011;10652;50.306;8.570;2023-04-25T23:34:16;4.00;;;2.60;;
20986;SDS011;10652;50.306;8.570;2023-04-25T23:38:18;4.85;;;2.13;;
20986;SDS011;10652;50.306;8.570;2023-04-25T23:42:21;3.75;;;2.00;;
20986;SDS011;10652;50.306;8.570;2023-04-25T23:46:23;4.57;;;2.40;;
20986;SDS011;10652;50.306;8.570;2023-04-25T23:50:26;2.90;;;1.98;;
20986;SDS011;10652;50.306;8.570;2023-04-25T23:54:28;4.90;;;2.45;;
20986;SDS011;10652;50.306;8.570;2023-04-25T23:58:30;3.28;;;2.00;;
